Data for 09/13/2016

Time Sea-Level Adjusted Pressure Absolute Pressure Temperature Relative Humidity Dew Point   
(mb) (inHg) (mb) (inHg) (C) (F) (%) (C) (F)
00:05 1024 30.24 853 25.19 3.7 38.7 71 -1 30.2
00:10 1024 30.24 853 25.19 3.7 38.7 72 -1 30.3
00:15 1024 30.24 853 25.19 3.6 38.6 73 -0.8 30.5
00:20 1024 30.24 853 25.19 3.6 38.5 72 -0.9 30.4
00:25 1024 30.24 853 25.19 3.6 38.4 73 -0.9 30.4
00:30 1024 30.24 853 25.19 3.5 38.3 73 -0.9 30.3
00:35 1024 30.24 853 25.19 3.5 38.3 73 -1 30.3
00:40 1024 30.24 853 25.19 3.5 38.2 73 -0.9 30.4
00:45 1024 30.24 853 25.19 3.4 38.2 73 -0.9 30.4
00:50 1024 30.24 853 25.19 3.4 38.2 73 -0.9 30.3
00:55 1024 30.24 853 25.19 3.5 38.2 73 -1 30.3
01:00 1024 30.24 853 25.19 3.4 38.2 73 -0.9 30.5
01:05 1023 30.21 853 25.19 3.4 38.1 74 -0.8 30.5
01:10 1023 30.21 853 25.19 3.4 38 74 -0.8 30.6
01:15 1023 30.21 852 25.16 3.3 37.9 74 -0.9 30.5
01:20 1023 30.21 852 25.16 3.3 37.9 74 -0.8 30.5
01:25 1023 30.21 852 25.16 3.3 37.9 75 -0.8 30.6
01:30 1023 30.21 852 25.16 3.2 37.8 75 -0.8 30.5
01:35 1023 30.21 852 25.16 3.2 37.8 75 -0.8 30.6
01:40 1023 30.21 852 25.16 3.2 37.8 75 -0.7 30.7
01:45 1023 30.21 852 25.16 3.2 37.7 76 -0.7 30.8
01:50 1023 30.21 852 25.16 3.1 37.6 76 -0.7 30.7
01:55 1023 30.21 852 25.16 3.1 37.6 76 -0.7 30.7
02:00 1023 30.21 852 25.16 3.1 37.6 76 -0.8 30.6
02:05 1023 30.21 852 25.16 3.1 37.6 75 -0.8 30.5
02:10 1023 30.21 852 25.16 3.1 37.6 75 -0.8 30.6
02:15 1023 30.21 852 25.16 3.1 37.6 76 -0.8 30.6
02:20 1023 30.21 852 25.16 3.1 37.6 76 -0.8 30.6
02:25 1023 30.21 852 25.16 3.1 37.6 76 -0.7 30.7
02:30 1023 30.21 852 25.16 3.1 37.5 76 -0.7 30.7
02:35 1023 30.21 852 25.16 3.1 37.5 77 -0.6 30.9
02:40 1023 30.21 852 25.16 3 37.5 77 -0.6 31
02:45 1023 30.21 852 25.16 3 37.4 77 -0.6 31
02:50 1023 30.21 852 25.16 3 37.4 78 -0.5 31
02:55 1023 30.21 852 25.16 3 37.4 78 -0.5 31.1
03:00 1023 30.21 852 25.16 3 37.3 78 -0.5 31.1
03:05 1023 30.21 852 25.16 3 37.4 78 -0.5 31.2
03:10 1023 30.21 852 25.16 3 37.3 79 -0.4 31.3
03:15 1023 30.21 852 25.16 3 37.3 78 -0.5 31.2
03:20 1023 30.21 852 25.16 3 37.4 78 -0.5 31.2
03:25 1023 30.21 852 25.16 3 37.4 79 -0.3 31.5
03:30 1023 30.21 852 25.16 3 37.3 78 -0.5 31.2
03:35 1023 30.21 852 25.16 3 37.4 79 -0.3 31.4
03:40 1023 30.21 852 25.16 3 37.5 78 -0.4 31.2
03:45 1023 30.21 852 25.16 3.1 37.5 78 -0.5 31.2
03:50 1023 30.21 852 25.16 3.1 37.6 78 -0.4 31.3
03:55 1023 30.21 852 25.16 3.1 37.6 78 -0.4 31.3
04:00 1023 30.21 852 25.16 3.1 37.6 77 -0.5 31.1
04:05 1023 30.21 852 25.16 3.2 37.7 77 -0.5 31.2
04:10 1023 30.21 852 25.16 3.2 37.7 77 -0.5 31.1
04:15 1023 30.21 852 25.16 3.2 37.8 77 -0.5 31.1
04:20 1023 30.21 852 25.16 3.2 37.8 77 -0.4 31.3
04:25 1023 30.21 852 25.16 3.2 37.8 78 -0.3 31.5
04:30 1023 30.21 852 25.16 3.1 37.5 80 -0.1 31.8
04:35 1023 30.21 852 25.16 3 37.4 80 -0.1 31.8
04:40 1023 30.21 852 25.16 3 37.3 80 -0.1 31.9
04:45 1023 30.21 852 25.16 2.9 37.3 81 -0.1 31.8
04:50 1023 30.21 852 25.16 2.9 37.3 81 -0.1 31.9
04:55 1023 30.21 852 25.16 2.9 37.3 81 -0.1 31.9
05:00 1023 30.21 852 25.16 2.9 37.3 81 -0.1 31.9
05:05 1023 30.21 852 25.16 2.9 37.3 81 -0.1 31.9
05:10 1023 30.21 852 25.16 3 37.5 77 -0.6 30.8
05:15 1022 30.18 852 25.16 3.3 37.9 75 -0.7 30.7
05:20 1023 30.21 852 25.16 3.4 38.1 75 -0.7 30.8
05:25 1023 30.21 852 25.16 3.4 38.1 75 -0.7 30.8
05:30 1023 30.21 852 25.16 3.4 38.1 75 -0.6 31
05:35 1022 30.18 852 25.16 3.3 38 75 -0.7 30.8
05:40 1022 30.18 852 25.16 3.3 38 75 -0.6 30.8
05:45 1022 30.18 852 25.16 3.3 38 75 -0.7 30.7
05:50 1022 30.18 852 25.16 3.3 38 75 -0.7 30.8
05:55 1022 30.18 852 25.16 3.3 38 75 -0.8 30.6
06:00 1022 30.18 852 25.16 3.3 38 74 -0.8 30.6
06:05 1022 30.18 852 25.16 3.3 38 75 -0.7 30.7
06:10 1023 30.21 852 25.16 3.2 37.8 76 -0.7 30.8
06:15 1023 30.21 852 25.16 3.2 37.8 76 -0.7 30.8
06:20 1023 30.21 852 25.16 3.2 37.7 76 -0.6 30.9
06:25 1023 30.21 852 25.16 3.2 37.7 77 -0.6 31
06:30 1023 30.21 852 25.16 3.2 37.7 77 -0.6 31
06:35 1023 30.21 852 25.16 3.1 37.6 77 -0.5 31.1
06:40 1023 30.21 852 25.16 3.1 37.7 77 -0.5 31.1
06:45 1023 30.21 852 25.16 3.2 37.7 77 -0.4 31.2
06:50 1023 30.21 852 25.16 3.1 37.6 78 -0.4 31.3
06:55 1023 30.21 852 25.16 3.1 37.6 78 -0.4 31.3
07:00 1023 30.21 852 25.16 3.1 37.7 78 -0.4 31.3
07:05 1023 30.21 852 25.16 3.2 37.7 78 -0.4 31.4
07:10 1023 30.21 852 25.16 3.2 37.7 78 -0.3 31.4
07:15 1023 30.21 852 25.16 3.2 37.8 77 -0.4 31.3
07:20 1023 30.21 852 25.16 3.2 37.8 77 -0.4 31.3
07:25 1023 30.21 852 25.16 3.3 37.9 78 -0.3 31.5
07:30 1022 30.18 852 25.16 3.2 37.8 78 -0.3 31.4
07:35 1023 30.21 852 25.16 3.2 37.8 78 -0.2 31.6
07:40 1023 30.21 852 25.16 3.2 37.8 78 -0.3 31.5
07:45 1023 30.21 852 25.16 3.3 37.9 77 -0.3 31.4
07:50 1023 30.21 852 25.16 3.3 38 77 -0.3 31.5
07:55 1023 30.21 852 25.16 3.4 38.1 77 -0.2 31.6
08:00 1023 30.21 852 25.16 3.4 38.2 78 -0.1 31.9
08:05 1023 30.21 852 25.16 3.4 38.2 77 -0.1 31.8
08:10 1023 30.21 852 25.16 3.5 38.4 76 -0.3 31.5
08:15 1023 30.21 852 25.16 3.6 38.5 76 -0.2 31.6
08:20 1023 30.21 852 25.16 3.5 38.4 77 -0.1 31.9
08:25 1023 30.21 852 25.16 3.5 38.3 78 -0 32
08:30 1023 30.21 852 25.16 3.6 38.4 77 -0.1 31.8
08:35 1023 30.21 852 25.16 3.6 38.5 77 -0 31.9
08:40 1023 30.21 852 25.16 3.7 38.7 77 0.1 32.3
08:45 1023 30.21 852 25.16 3.8 38.9 77 0.2 32.3
08:50 1023 30.21 852 25.16 4 39.1 77 0.3 32.5
08:55 1023 30.21 852 25.16 3.8 38.9 78 0.3 32.5
09:00 1023 30.21 852 25.16 4 39.1 77 0.2 32.4
09:05 1023 30.21 852 25.16 4.3 39.8 75 0.3 32.6
09:10 1023 30.21 852 25.16 4.3 39.7 74 0.1 32.2
09:15 1023 30.21 852 25.16 4.3 39.7 75 0.2 32.4
09:20 1023 30.21 852 25.16 4.5 40.2 74 0.3 32.5
09:25 1023 30.21 852 25.16 4.8 40.6 72 0.1 32.1
09:30 1022 30.18 852 25.16 4.8 40.6 72 0.1 32.1
09:35 1022 30.18 852 25.16 4.8 40.7 71 0.1 32.2
09:40 1022 30.18 852 25.16 5 40.9 70 -0 32
09:45 1022 30.18 852 25.16 5.3 41.6 68 -0.1 31.7
09:50 1022 30.18 852 25.16 5.5 41.9 67 -0.1 31.8
09:55 1022 30.18 852 25.16 5.7 42.2 66 -0.1 31.8
10:00 1022 30.18 852 25.16 5.7 42.3 68 0.2 32.4
10:05 1022 30.18 852 25.16 5.8 42.4 66 -0.1 31.9
10:10 1023 30.21 852 25.16 6 42.8 67 0.3 32.5
10:15 1023 30.21 852 25.16 6.3 43.3 64 -0 32
10:20 1023 30.21 852 25.16 6.7 44.1 61 -0.3 31.5
10:25 1023 30.21 852 25.16 7 44.7 58 -0.6 30.9
10:30 1023 30.21 852 25.16 7.5 45.5 58 -0.2 31.6
10:35 1023 30.21 852 25.16 7.2 45 59 -0.1 31.8
10:40 1023 30.21 852 25.16 7.2 45 59 -0.3 31.5
10:45 1022 30.18 852 25.16 7.2 44.9 59 -0.2 31.6
10:50 1022 30.18 852 25.16 7.1 44.8 58 -0.5 31.1
10:55 1022 30.18 852 25.16 7 44.5 60 -0.3 31.4
11:00 1022 30.18 852 25.16 6.9 44.5 61 -0 32
11:05 1022 30.18 852 25.16 7 44.6 60 -0.3 31.4
11:10 1022 30.18 852 25.16 7.1 44.8 60 -0 32
11:15 1022 30.18 852 25.16 7.3 45.1 59 -0.3 31.5
11:20 1022 30.18 852 25.16 7.3 45.2 60 0.1 32.2
11:25 1022 30.18 851 25.13 7.4 45.2 61 0.3 32.6
11:30 1022 30.18 851 25.13 7.5 45.6 58 -0.1 31.8
11:35 1022 30.18 851 25.13 7.3 45.2 61 0.3 32.6
11:40 1022 30.18 851 25.13 7.3 45.2 59 -0 32
11:45 1022 30.18 851 25.13 7.2 45 61 0.1 32.2
11:50 1022 30.18 851 25.13 7.6 45.6 61 0.6 33.1
11:55 1022 30.18 851 25.13 7.1 44.8 62 0.3 32.6
12:00 1022 30.18 851 25.13 7.1 44.7 60 -0 31.9
12:05 1022 30.18 851 25.13 7.5 45.5 61 0.5 32.8
12:10 1022 30.18 851 25.13 7.8 46 59 0.2 32.3
12:15 1022 30.18 851 25.13 7.6 45.7 61 0.6 33.2
12:20 1022 30.18 851 25.13 7.8 46 59 0.3 32.6
12:25 1022 30.18 851 25.13 7.8 46.1 60 0.6 33.2
12:30 1022 30.18 851 25.13 7.9 46.1 61 0.9 33.6
12:35 1022 30.18 851 25.13 7.6 45.7 61 0.5 33
12:40 1022 30.18 851 25.13 7.6 45.8 62 0.8 33.4
12:45 1022 30.18 851 25.13 7.4 45.3 62 0.7 33.2
12:50 1022 30.18 851 25.13 7.4 45.3 62 0.7 33.2
12:55 1022 30.18 851 25.13 7.4 45.4 63 0.8 33.4
13:00 1021 30.15 851 25.13 7.6 45.6 63 0.9 33.7
13:05 1021 30.15 851 25.13 7.8 46.1 62 1 33.7
13:10 1021 30.15 851 25.13 8.1 46.5 60 0.8 33.4
13:15 1021 30.15 851 25.13 8.1 46.6 61 1 33.9
13:20 1021 30.15 851 25.13 8.3 46.9 60 1 33.8
13:25 1021 30.15 851 25.13 7.9 46.2 62 1.1 34
13:30 1021 30.15 850 25.1 7.9 46.1 63 1.2 34.1
13:35 1021 30.15 851 25.13 8 46.4 62 1.2 34.1
13:40 1021 30.15 851 25.13 7.9 46.3 62 1.2 34.1
13:45 1021 30.15 850 25.1 8.3 46.9 61 1.2 34.2
13:50 1021 30.15 850 25.1 8.3 46.9 60 1 33.8
13:55 1021 30.15 850 25.1 8.2 46.7 62 1.4 34.6
14:00 1021 30.15 850 25.1 8.2 46.8 62 1.3 34.3
14:05 1021 30.15 850 25.1 8.2 46.7 62 1.5 34.6
14:10 1021 30.15 850 25.1 8.2 46.8 62 1.4 34.6
14:15 1021 30.15 850 25.1 8.1 46.5 63 1.5 34.8
14:20 1021 30.15 850 25.1 8.3 46.9 62 1.6 34.8
14:25 1021 30.15 850 25.1 8.4 47.1 62 1.7 35
14:30 1021 30.15 850 25.1 8.4 47.1 62 1.6 35
14:35 1021 30.15 850 25.1 8.4 47.1 62 1.7 35
14:40 1021 30.15 850 25.1 8.3 47 62 1.5 34.7
14:45 1021 30.15 850 25.1 8.3 46.9 63 1.7 35
14:50 1021 30.15 850 25.1 8.3 47 63 1.7 35
14:55 1021 30.15 850 25.1 7.9 46.2 65 1.7 35.1
15:00 1021 30.15 850 25.1 7.7 45.9 65 1.7 35.1
15:05 1020 30.12 850 25.1 7.7 45.9 65 1.5 34.8
15:10 1020 30.12 850 25.1 7.8 46.1 64 1.5 34.7
15:15 1020 30.12 849 25.07 8.2 46.7 63 1.7 35
15:20 1020 30.12 849 25.07 8.5 47.2 62 1.6 34.8
15:25 1020 30.12 849 25.07 8.8 47.9 61 1.8 35.2
15:30 1020 30.12 850 25.1 9 48.2 60 1.7 35
15:35 1020 30.12 850 25.1 9.3 48.7 59 1.8 35.2
15:40 1020 30.12 849 25.07 9.4 48.9 59 1.9 35.4
15:45 1020 30.12 849 25.07 9.3 48.8 60 2 35.5
15:50 1020 30.12 849 25.07 9.4 48.9 60 2 35.7
15:55 1020 30.12 849 25.07 8.9 48 61 1.9 35.5
16:00 1020 30.12 849 25.07 9 48.3 61 1.9 35.4
16:05 1020 30.12 849 25.07 9.1 48.4 60 1.9 35.4
16:10 1020 30.12 849 25.07 9.1 48.4 60 1.9 35.4
16:15 1020 30.12 849 25.07 9.3 48.7 61 2.1 35.7
16:20 1020 30.12 849 25.07 9.1 48.4 62 2.3 36.1
16:25 1020 30.12 849 25.07 9.1 48.4 62 2.2 36
16:30 1020 30.12 849 25.07 9.1 48.3 62 2.3 36.1
16:35 1020 30.12 849 25.07 8.6 47.4 64 2.3 36.1
16:40 1020 30.12 849 25.07 8.4 47 65 2.1 35.8
16:45 1020 30.12 849 25.07 8.3 47 65 2.1 35.7
16:50 1020 30.12 849 25.07 8.1 46.6 66 2.2 35.9
16:55 1020 30.12 849 25.07 8 46.4 67 2.2 35.9
17:00 1020 30.12 849 25.07 7.9 46.1 67 2.2 35.9
17:05 1020 30.12 849 25.07 7.8 46 68 2.2 35.9
17:10 1020 30.12 849 25.07 7.7 45.8 68 2.2 35.9
17:15 1020 30.12 849 25.07 7.6 45.7 68 2.1 35.8
17:20 1020 30.12 849 25.07 7.6 45.8 68 2.1 35.9
17:25 1020 30.12 849 25.07 7.8 46 68 2.2 36
17:30 1020 30.12 849 25.07 7.7 45.8 68 2.2 35.9
17:35 1020 30.12 849 25.07 7.7 45.9 68 2.3 36.1
17:40 1020 30.12 849 25.07 7.7 45.8 68 2.2 36
17:45 1020 30.12 849 25.07 7.6 45.6 69 2.2 35.9
17:50 1020 30.12 849 25.07 7.5 45.6 69 2.2 36
17:55 1020 30.12 849 25.07 7.5 45.4 69 2.2 35.9
18:00 1020 30.12 849 25.07 7.3 45.2 70 2.2 36
18:05 1020 30.12 849 25.07 7.2 44.9 71 2.2 36
18:10 1020 30.12 849 25.07 7 44.6 71 2.2 35.9
18:15 1020 30.12 849 25.07 6.9 44.4 72 2.2 36
18:20 1020 30.12 849 25.07 6.8 44.2 72 2.1 35.9
18:25 1020 30.12 849 25.07 6.7 44.1 73 2.2 35.9
18:30 1020 30.12 849 25.07 6.6 43.9 73 2.1 35.8
18:35 1020 30.12 849 25.07 6.6 43.9 73 2.2 35.9
18:40 1020 30.12 849 25.07 6.5 43.8 74 2.2 36
18:45 1020 30.12 849 25.07 6.4 43.6 74 2.2 35.9
18:50 1020 30.12 849 25.07 6.4 43.5 75 2.2 35.9
18:55 1020 30.12 849 25.07 6.3 43.4 75 2.2 36
19:00 1020 30.12 849 25.07 6.3 43.4 75 2.2 36
19:05 1020 30.12 849 25.07 6.2 43.2 75 2.2 35.9
19:10 1020 30.12 849 25.07 6.2 43.1 76 2.2 36
19:15 1020 30.12 849 25.07 6.1 42.9 76 2.2 35.9
19:20 1020 30.12 849 25.07 6 42.9 76 2.2 35.9
19:25 1020 30.12 849 25.07 6 42.8 77 2.2 36
19:30 1020 30.12 849 25.07 5.9 42.7 77 2.2 35.9
19:35 1020 30.12 849 25.07 5.9 42.6 77 2.2 35.9
19:40 1020 30.12 849 25.07 5.8 42.5 77 2.2 35.9
19:45 1020 30.12 849 25.07 5.8 42.4 77 2.1 35.8
19:50 1020 30.12 849 25.07 5.8 42.4 77 2.2 35.9
19:55 1020 30.12 849 25.07 5.8 42.4 78 2.2 35.9
20:00 1020 30.12 849 25.07 5.8 42.4 78 2.1 35.8
20:05 1020 30.12 850 25.1 5.8 42.4 78 2.2 35.9
20:10 1020 30.12 850 25.1 5.8 42.4 77 2.1 35.8
20:15 1020 30.12 850 25.1 5.8 42.4 77 2.1 35.8
20:20 1020 30.12 850 25.1 5.7 42.3 78 2.1 35.8
20:25 1020 30.12 850 25.1 5.7 42.2 78 2.1 35.8
20:30 1020 30.12 850 25.1 5.7 42.3 78 2.1 35.8
20:35 1020 30.12 850 25.1 5.7 42.3 78 2.1 35.9
20:40 1020 30.12 850 25.1 5.7 42.3 77 2.1 35.7
20:45 1020 30.12 849 25.07 5.8 42.4 77 2.1 35.8
20:50 1020 30.12 849 25.07 5.7 42.3 78 2.1 35.9
20:55 1020 30.12 849 25.07 5.6 42.2 78 2.1 35.7
21:00 1020 30.12 849 25.07 5.7 42.2 77 2 35.6
21:05 1020 30.12 849 25.07 5.7 42.3 77 2.1 35.7
21:10 1020 30.12 849 25.07 5.7 42.2 77 2.1 35.7
21:15 1020 30.12 849 25.07 5.7 42.2 78 2.1 35.7
21:20 1020 30.12 849 25.07 5.7 42.2 77 2 35.7
21:25 1020 30.12 849 25.07 5.7 42.2 78 2.1 35.7
21:30 1020 30.12 849 25.07 5.7 42.2 78 2.1 35.8
21:35 1020 30.12 850 25.1 5.7 42.2 78 2.1 35.8
21:40 1020 30.12 849 25.07 5.7 42.2 78 2.1 35.7
21:45 1020 30.12 850 25.1 5.7 42.3 78 2.1 35.8
21:50 1020 30.12 850 25.1 5.7 42.3 77 2.1 35.7
21:55 1020 30.12 849 25.07 5.7 42.3 78 2.1 35.8
22:00 1020 30.12 849 25.07 5.7 42.2 78 2.1 35.8
22:05 1020 30.12 849 25.07 5.6 42.1 78 2.1 35.8
22:10 1020 30.12 849 25.07 5.6 42.1 78 2.1 35.7
22:15 1020 30.12 849 25.07 5.6 42 79 2.2 35.9
22:20 1020 30.12 849 25.07 5.5 41.9 79 2.1 35.9
22:25 1020 30.12 849 25.07 5.5 41.8 79 2.1 35.9
22:30 1020 30.12 849 25.07 5.5 41.8 79 2.1 35.8
22:35 1020 30.12 849 25.07 5.5 41.8 79 2.1 35.9
22:40 1020 30.12 849 25.07 5.4 41.8 79 2.1 35.9
22:45 1020 30.12 849 25.07 5.4 41.8 79 2.2 35.9
22:50 1020 30.12 849 25.07 5.4 41.8 79 2.1 35.8
22:55 1020 30.12 849 25.07 5.4 41.8 79 2.1 35.8
23:00 1020 30.12 849 25.07 5.4 41.7 80 2.2 35.9
23:05 1020 30.12 849 25.07 5.4 41.7 80 2.2 35.9
23:10 1020 30.12 849 25.07 5.4 41.7 80 2.2 35.9
23:15 1019 30.09 849 25.07 5.3 41.6 80 2.1 35.9
23:20 1019 30.09 849 25.07 5.3 41.6 80 2.2 35.9
23:25 1019 30.09 849 25.07 5.3 41.5 80 2.2 35.9
23:30 1019 30.09 849 25.07 5.2 41.4 80 2.1 35.8
23:35 1020 30.12 849 25.07 5.2 41.4 80 2.1 35.7
23:40 1020 30.12 849 25.07 5.2 41.3 80 2 35.7
23:45 1020 30.12 849 25.07 5.2 41.4 80 2.1 35.8
23:50 1020 30.12 849 25.07 5.2 41.4 80 2.1 35.8
23:55 1020 30.12 849 25.07 5.1 41.3 81 2.1 35.7
24:00 1020 30.12 849 25.07 5.1 41.2 81 2 35.7